DW7431 Cala Millor ES current weather conditions

sailwx.info

Wind from 315 at 9 knots gusting 9

Air temperature 15.6° C
Dewpoint 13.7° C

Last reported at 2015-Apr-27 00:01 UTC.
Time now 2015-Apr-27 01:56 UTC

Location: N 39°36' E 003°22'.
View on Google Maps.

See reports from other nearby stations

  
Tides and Currents Weather Stations Pressure Air Temp Water Temp Dewpoint Dewpoint Depression Visibility Wind Speed Wind Dir Waves Ship Positions
date/time (UTC)wind fromknots sea level pressurealtimeterstation pressurevisibilityair tempwater tempwave heightnotes
2015-Apr-27 00:01 315 9 gusting 9 15.6
2015-Apr-26 23:01 270 7 gusting 13 17.2
2015-Apr-26 22:01 270 6 gusting 5 17.2
2015-Apr-26 19:01 315 4 gusting 4 18.9
2015-Apr-26 18:01 270 8 gusting 7 21.1
2015-Apr-26 17:01 202 9 gusting 11 21.1
2015-Apr-26 14:01 180 13 gusting 15 21.7
2015-Apr-26 11:01 225 10 gusting 16 21.7
2015-Apr-26 10:01 180 6 gusting 6 20.6
2015-Apr-26 09:01 247 6 gusting 12 18.9
2015-Apr-26 08:01 247 6 gusting 7 17.8
2015-Apr-26 07:01 247 6 gusting 9 17.2
2015-Apr-26 05:01 315 1 gusting 2 15.0
2015-Apr-26 03:01 270 3 gusting 3 15.6
2015-Apr-26 02:01 247 0 gusting 3 16.1
2015-Apr-25 21:01 247 3 gusting 2 16.7
2015-Apr-25 20:01 247 4 gusting 4 17.2
2015-Apr-25 17:01 202 11 gusting 13 18.3
2015-Apr-25 16:01 225 8 gusting 10 20.0
2015-Apr-25 15:01 202 10 gusting 16 21.1
2015-Apr-25 14:01 225 10 gusting 14 22.2
2015-Apr-25 12:01 225 11 gusting 16 21.7
2015-Apr-25 11:01 225 9 gusting 14 21.7
2015-Apr-25 08:01 180 5 gusting 9 18.3
2015-Apr-25 06:01 315 3 gusting 3 15.6
2015-Apr-25 03:01 292 4 gusting 4 15.0
2015-Apr-25 02:01 315 4 gusting 4 15.0
2015-Apr-25 01:01 067 1 gusting 0 15.6